createdAt,value
2022-08-11T00:01:22.356Z,47.35
2022-08-11T00:03:56.458Z,47.29
2022-08-11T00:06:26.985Z,47.47
2022-08-11T00:08:55.792Z,47.94
2022-08-11T00:11:34.707Z,47.90
2022-08-11T00:14:05.521Z,48.22
2022-08-11T00:16:36.294Z,48.52
2022-08-11T00:19:04.630Z,48.75
2022-08-11T00:22:04.637Z,49.14
2022-08-11T00:24:53.540Z,49.41
2022-08-11T00:27:33.497Z,49.50
2022-08-11T00:30:06.530Z,49.86
2022-08-11T00:32:36.331Z,50.03
2022-08-11T00:35:54.636Z,49.92
2022-08-11T00:38:00.687Z,50.10
2022-08-11T00:40:39.387Z,50.52
2022-08-11T00:43:19.942Z,50.66
2022-08-11T00:46:11.549Z,50.49
2022-08-11T00:48:50.531Z,50.87
2022-08-11T00:51:56.611Z,50.60
2022-08-11T00:55:01.272Z,50.17
2022-08-11T00:58:06.833Z,50.89
2022-08-11T01:00:52.428Z,50.64
2022-08-11T01:03:41.738Z,50.72
2022-08-11T01:06:39.589Z,50.83
2022-08-11T01:09:25.478Z,50.96
2022-08-11T01:12:19.764Z,50.88
2022-08-11T01:15:25.691Z,50.98
2022-08-11T01:18:28.339Z,51.49
2022-08-11T01:21:35.383Z,51.68
2022-08-11T01:25:00.966Z,51.58
2022-08-11T01:28:13.815Z,51.52
2022-08-11T01:31:23.819Z,51.72
2022-08-11T01:34:21.009Z,51.90
2022-08-11T01:37:03.335Z,52.21
2022-08-11T01:40:16.371Z,52.76
2022-08-11T01:43:55.440Z,52.98
2022-08-11T01:46:29.115Z,53.39
2022-08-11T01:50:06.778Z,53.37
2022-08-11T01:52:18.608Z,53.17
2022-08-11T01:54:54.316Z,53.60
2022-08-11T01:57:38.606Z,53.83
2022-08-11T02:00:12.685Z,53.80
2022-08-11T02:02:53.894Z,53.95
2022-08-11T02:05:48.291Z,53.88
2022-08-11T02:08:35.264Z,54.07
2022-08-11T02:11:31.044Z,54.39
2022-08-11T02:14:12.700Z,54.49
2022-08-11T02:17:00.195Z,54.49
2022-08-11T02:20:01.449Z,54.67
2022-08-11T02:22:59.801Z,54.74
2022-08-11T02:25:41.184Z,55.09
2022-08-11T02:28:23.985Z,55.34
2022-08-11T02:32:24.093Z,55.36
2022-08-11T02:34:15.997Z,55.20
2022-08-11T02:36:51.903Z,55.52
2022-08-11T02:39:25.001Z,55.42
2022-08-11T02:42:32.587Z,55.62
2022-08-11T02:45:33.294Z,55.70
2022-08-11T02:48:31.909Z,55.95
2022-08-11T02:51:11.284Z,56.09
2022-08-11T02:53:54.478Z,56.09
2022-08-11T02:56:44.338Z,56.24
2022-08-11T02:59:53.410Z,56.22
2022-08-11T03:02:40.581Z,56.36
2022-08-11T03:05:27.493Z,56.33
2022-08-11T03:08:30.414Z,56.45
2022-08-11T03:11:24.024Z,56.41
2022-08-11T03:14:25.416Z,56.54
2022-08-11T03:17:04.337Z,56.63
2022-08-11T03:19:41.394Z,56.48
2022-08-11T03:22:14.345Z,56.58
2022-08-11T03:24:55.534Z,56.50
2022-08-11T03:27:40.385Z,56.55
2022-08-11T03:30:17.298Z,56.48
2022-08-11T03:33:27.191Z,56.76
2022-08-11T03:36:22.547Z,56.68
2022-08-11T03:39:07.258Z,56.87
2022-08-11T03:42:02.591Z,56.71
2022-08-11T03:44:49.024Z,56.79
2022-08-11T03:47:35.133Z,57.22
2022-08-11T03:50:14.548Z,56.89
2022-08-11T03:52:52.764Z,56.57
2022-08-11T03:55:34.670Z,56.66
2022-08-11T03:58:42.088Z,56.65
2022-08-11T04:01:56.142Z,56.33
2022-08-11T04:05:19.652Z,55.93
2022-08-11T04:08:23.313Z,56.30
2022-08-11T04:11:24.921Z,56.34
2022-08-11T04:15:04.994Z,56.53
2022-08-11T04:18:21.906Z,56.33
2022-08-11T04:21:12.868Z,56.38
2022-08-11T04:24:39.571Z,56.66
2022-08-11T04:29:02.227Z,56.84
2022-08-11T04:31:52.407Z,56.69
2022-08-11T04:34:53.218Z,56.52
2022-08-11T04:37:44.215Z,56.64
2022-08-11T04:40:50.048Z,56.30
2022-08-11T04:44:02.509Z,56.84
2022-08-11T04:46:58.715Z,56.89
2022-08-11T04:49:58.392Z,57.06
2022-08-11T04:53:16.980Z,57.09
2022-08-11T04:56:26.357Z,56.80
2022-08-11T04:59:47.159Z,56.69
2022-08-11T05:03:02.314Z,56.75
2022-08-11T05:05:56.466Z,56.64
2022-08-11T05:09:04.298Z,57.05
2022-08-11T05:11:48.039Z,56.71
2022-08-11T05:14:50.710Z,56.45
2022-08-11T05:17:51.002Z,56.12
2022-08-11T05:20:36.621Z,55.19
2022-08-11T05:23:25.929Z,54.58
2022-08-11T05:26:46.017Z,53.21
2022-08-11T05:29:46.062Z,51.47
2022-08-11T05:32:36.771Z,49.51
2022-08-11T05:35:08.750Z,48.70
2022-08-11T05:37:58.185Z,47.95
2022-08-11T05:40:51.163Z,47.48
2022-08-11T05:44:20.812Z,46.22
2022-08-11T05:46:47.708Z,45.17
2022-08-11T05:49:35.626Z,44.45
2022-08-11T05:52:28.128Z,43.73
2022-08-11T05:55:22.451Z,42.99
2022-08-11T05:57:56.019Z,43.48
2022-08-11T06:00:24.658Z,43.08
2022-08-11T06:02:55.882Z,42.94
2022-08-11T06:05:38.210Z,42.56
2022-08-11T06:08:16.168Z,42.42
2022-08-11T06:10:46.283Z,42.11
2022-08-11T06:13:17.321Z,41.38
2022-08-11T06:15:47.296Z,41.49
2022-08-11T06:18:18.514Z,41.24
2022-08-11T06:20:51.916Z,41.10
2022-08-11T06:23:24.048Z,40.62
2022-08-11T06:25:53.110Z,39.80
2022-08-11T06:28:34.202Z,39.56
2022-08-11T06:31:04.573Z,37.40
2022-08-11T06:33:36.948Z,37.40
2022-08-11T06:36:12.158Z,36.99
2022-08-11T06:38:57.908Z,37.02
2022-08-11T06:41:31.746Z,35.30
2022-08-11T06:44:17.922Z,34.47
2022-08-11T06:46:50.887Z,34.57
2022-08-11T06:49:39.727Z,33.50
2022-08-11T06:52:34.777Z,32.74
2022-08-11T06:55:55.664Z,31.75
2022-08-11T06:58:17.953Z,31.62
2022-08-11T07:00:48.683Z,31.17
2022-08-11T07:03:20.208Z,30.56
2022-08-11T07:05:52.027Z,30.13
2022-08-11T07:09:10.478Z,29.51
2022-08-11T07:12:27.807Z,29.16
2022-08-11T07:15:15.589Z,29.15
2022-08-11T07:18:10.602Z,28.74
2022-08-11T07:21:02.130Z,28.69
2022-08-11T07:23:52.741Z,28.02
2022-08-11T07:26:42.189Z,28.33
2022-08-11T07:29:14.795Z,27.35
2022-08-11T07:31:50.228Z,26.89
2022-08-11T07:34:22.702Z,26.82
2022-08-11T07:36:54.791Z,25.76
2022-08-11T07:39:25.652Z,25.13
2022-08-11T07:41:58.835Z,25.34
2022-08-11T07:44:34.643Z,24.33
2022-08-11T07:47:21.600Z,25.17
2022-08-11T07:50:12.645Z,26.59
2022-08-11T07:52:41.245Z,25.56
2022-08-11T07:55:14.587Z,25.04
2022-08-11T07:58:16.035Z,24.55
2022-08-11T08:01:22.458Z,23.81
2022-08-11T08:04:10.000Z,23.53
2022-08-11T08:06:57.004Z,23.08
2022-08-11T08:09:45.678Z,22.94
2022-08-11T08:12:32.935Z,23.85
2022-08-11T08:15:26.196Z,23.94
2022-08-11T08:18:09.597Z,22.98
2022-08-11T08:20:50.898Z,21.91
2022-08-11T08:23:33.035Z,22.14
2022-08-11T08:26:04.867Z,21.14
2022-08-11T08:28:34.796Z,22.39
2022-08-11T08:31:02.653Z,21.87
2022-08-11T08:33:33.608Z,20.85
2022-08-11T08:36:12.642Z,21.36
2022-08-11T08:38:49.355Z,21.57
2022-08-11T08:41:23.374Z,21.45
2022-08-11T08:43:56.427Z,21.22
2022-08-11T08:46:35.889Z,22.95
2022-08-11T08:49:06.904Z,20.90
2022-08-11T08:52:01.044Z,20.62
2022-08-11T08:54:35.670Z,20.49
2022-08-11T08:57:05.413Z,20.71
2022-08-11T08:59:47.891Z,21.01
2022-08-11T09:02:33.550Z,21.96
2022-08-11T09:05:05.263Z,22.00
2022-08-11T09:07:39.680Z,22.59
2022-08-11T09:10:10.782Z,21.97
2022-08-11T09:12:42.275Z,21.50
2022-08-11T09:15:12.869Z,20.47
2022-08-11T09:17:45.075Z,21.47
2022-08-11T09:20:19.467Z,21.36
2022-08-11T09:29:45.705Z,21.34
2022-08-11T09:32:20.432Z,21.75
2022-08-11T09:34:48.879Z,22.69
2022-08-11T09:37:54.442Z,21.94
2022-08-11T09:40:33.846Z,22.19
2022-08-11T09:43:22.252Z,22.28
2022-08-11T09:45:55.431Z,21.59
2022-08-11T09:48:25.867Z,21.04
2022-08-11T09:50:57.903Z,22.01
2022-08-11T09:53:35.728Z,21.74
2022-08-11T09:56:30.992Z,22.07
2022-08-11T09:59:04.369Z,20.71
2022-08-11T10:01:41.909Z,21.01
2022-08-11T10:04:16.623Z,20.39
2022-08-11T10:07:05.587Z,20.13
2022-08-11T10:09:40.692Z,20.58
2022-08-11T10:12:13.068Z,18.81
2022-08-11T10:15:05.134Z,20.22
2022-08-11T10:17:39.658Z,19.58
2022-08-11T10:20:09.977Z,18.37
2022-08-11T10:22:56.323Z,18.27
2022-08-11T10:25:57.632Z,17.71
2022-08-11T10:28:33.689Z,17.39
2022-08-11T10:31:38.977Z,18.64
2022-08-11T10:34:24.236Z,18.96
2022-08-11T10:36:56.147Z,19.65
2022-08-11T10:39:25.121Z,18.58
2022-08-11T10:42:25.516Z,19.05
2022-08-11T10:45:04.762Z,18.99
2022-08-11T10:47:35.211Z,18.75
2022-08-11T10:50:26.568Z,17.78
2022-08-11T10:53:17.878Z,17.86
2022-08-11T10:56:06.871Z,18.56
2022-08-11T10:58:47.343Z,19.11
2022-08-11T11:01:17.060Z,19.17
2022-08-11T11:03:46.601Z,18.13
2022-08-11T11:06:28.148Z,18.31
2022-08-11T11:09:04.752Z,17.91
2022-08-11T11:11:56.820Z,18.04
2022-08-11T11:14:56.419Z,17.52
2022-08-11T11:17:47.882Z,17.03
2022-08-11T11:20:34.609Z,18.11
2022-08-11T11:23:16.806Z,17.68
2022-08-11T11:26:10.826Z,18.42
2022-08-11T11:29:11.148Z,18.13
2022-08-11T11:31:52.314Z,17.52
2022-08-11T11:34:53.105Z,19.43
2022-08-11T11:37:24.168Z,19.05
2022-08-11T11:39:55.378Z,18.93
2022-08-11T11:42:24.064Z,19.14
2022-08-11T11:44:55.830Z,19.86
2022-08-11T11:47:25.248Z,19.91
2022-08-11T11:49:54.680Z,19.71
2022-08-11T11:52:23.674Z,19.01
2022-08-11T11:54:56.389Z,19.12
2022-08-11T11:57:58.351Z,18.42
2022-08-11T12:00:45.741Z,18.55
2022-08-11T12:03:14.983Z,19.13
2022-08-11T12:05:48.554Z,19.84
2022-08-11T12:08:18.692Z,20.58
2022-08-11T12:10:51.033Z,21.36
2022-08-11T12:13:37.357Z,22.14
2022-08-11T12:16:34.148Z,22.32
2022-08-11T12:19:01.842Z,22.66
2022-08-11T12:21:33.063Z,23.00
2022-08-11T12:24:20.964Z,22.71
2022-08-11T12:27:16.184Z,22.46
2022-08-11T12:29:52.853Z,21.75
2022-08-11T12:32:25.530Z,23.30
2022-08-11T12:34:56.979Z,23.18
2022-08-11T12:37:31.962Z,22.92
2022-08-11T12:40:49.572Z,23.02
2022-08-11T12:43:40.062Z,23.36
2022-08-11T12:46:11.467Z,23.19
2022-08-11T12:49:04.177Z,23.32
2022-08-11T12:52:11.397Z,23.38
2022-08-11T12:54:52.245Z,22.83
2022-08-11T12:57:44.996Z,23.53
2022-08-11T13:00:34.529Z,23.00
2022-08-11T13:03:25.838Z,23.41
2022-08-11T13:05:56.830Z,23.48
2022-08-11T13:08:29.825Z,23.10
2022-08-11T13:11:19.226Z,22.54
2022-08-11T13:13:52.936Z,22.54
2022-08-11T13:16:31.809Z,22.71
2022-08-11T13:19:01.786Z,23.04
2022-08-11T13:21:31.445Z,22.56
2022-08-11T13:24:03.696Z,22.42
2022-08-11T13:26:47.339Z,23.03
2022-08-11T13:29:20.913Z,23.04
2022-08-11T13:31:51.913Z,22.86
2022-08-11T13:34:21.923Z,23.01
2022-08-11T13:36:53.144Z,23.08
2022-08-11T13:39:24.209Z,22.68
2022-08-11T13:41:54.640Z,21.95
2022-08-11T13:44:25.819Z,22.14
2022-08-11T13:47:01.764Z,21.72
2022-08-11T13:49:31.566Z,21.95
2022-08-11T13:52:00.391Z,21.80
2022-08-11T13:54:31.137Z,20.81
2022-08-11T13:57:08.334Z,21.44
2022-08-11T13:59:51.990Z,21.82
2022-08-11T14:02:30.603Z,21.81
2022-08-11T14:05:07.187Z,22.03
2022-08-11T14:07:40.240Z,22.15
2022-08-11T14:10:10.242Z,22.03
2022-08-11T14:13:00.190Z,22.27
2022-08-11T14:15:32.410Z,22.16
2022-08-11T14:18:05.517Z,22.39
2022-08-11T14:20:50.593Z,21.68
2022-08-11T14:23:25.177Z,21.75
2022-08-11T14:26:10.694Z,21.41
2022-08-11T14:31:01.203Z,22.28
2022-08-11T14:33:58.154Z,21.91
2022-08-11T14:36:22.620Z,22.25
2022-08-11T14:38:53.606Z,22.03
2022-08-11T14:42:11.067Z,21.57
2022-08-11T14:44:49.504Z,21.37
2022-08-11T14:47:24.435Z,21.67
2022-08-11T14:50:02.575Z,22.04
2022-08-11T14:52:49.766Z,21.39
2022-08-11T14:55:36.863Z,21.63
2022-08-11T14:58:06.457Z,21.62
2022-08-11T15:00:35.949Z,21.87
2022-08-11T15:03:12.738Z,22.16
2022-08-11T15:05:56.616Z,21.89
2022-08-11T15:08:46.712Z,21.64
2022-08-11T15:11:31.994Z,22.42
2022-08-11T15:14:02.265Z,22.19
2022-08-11T15:16:48.508Z,21.83
2022-08-11T15:19:21.294Z,21.35
2022-08-11T15:22:08.201Z,21.72
2022-08-11T15:24:38.905Z,22.24
2022-08-11T15:27:30.368Z,21.79
2022-08-11T15:30:32.519Z,22.11
2022-08-11T15:33:23.465Z,22.02
2022-08-11T15:36:12.104Z,22.43
2022-08-11T15:38:44.206Z,21.75
2022-08-11T15:41:38.823Z,21.73
2022-08-11T15:45:08.311Z,21.73
2022-08-11T15:47:42.266Z,21.74
2022-08-11T15:50:15.933Z,21.69
2022-08-11T15:52:53.720Z,21.55
2022-08-11T15:55:26.158Z,21.01
2022-08-11T15:58:13.760Z,21.49
2022-08-11T16:01:09.041Z,21.62
2022-08-11T16:04:07.239Z,21.55
2022-08-11T16:06:42.844Z,21.23
2022-08-11T16:09:24.609Z,21.07
2022-08-11T16:11:57.854Z,21.02
2022-08-11T16:14:47.684Z,21.47
2022-08-11T16:17:18.595Z,21.32
2022-08-11T16:19:49.827Z,21.16
2022-08-11T16:22:28.484Z,21.58
2022-08-11T16:27:06.207Z,21.59
2022-08-11T16:27:50.983Z,21.42
2022-08-11T16:30:19.875Z,21.93
2022-08-11T16:32:52.992Z,21.67
2022-08-11T16:35:43.301Z,21.28
2022-08-11T16:38:31.744Z,21.00
2022-08-11T16:41:02.553Z,21.03
2022-08-11T16:43:51.527Z,21.74
2022-08-11T16:46:40.902Z,21.39
2022-08-11T16:49:13.335Z,21.67
2022-08-11T16:51:45.707Z,21.97
2022-08-11T16:54:14.609Z,21.73
2022-08-11T16:56:48.960Z,21.90
2022-08-11T16:59:20.282Z,21.79
2022-08-11T17:01:54.569Z,22.12
2022-08-11T17:04:48.422Z,22.21
2022-08-11T17:07:41.722Z,21.98
2022-08-11T17:10:51.328Z,22.10
2022-08-11T17:13:29.097Z,21.96
2022-08-11T17:16:11.794Z,22.24
2022-08-11T17:18:46.893Z,22.26
2022-08-11T17:21:27.334Z,22.48
2022-08-11T17:23:58.923Z,22.31
2022-08-11T17:26:52.710Z,22.52
2022-08-11T17:29:28.715Z,22.54
2022-08-11T17:32:15.367Z,22.95
2022-08-11T17:35:04.562Z,22.85
2022-08-11T17:37:34.144Z,22.76
2022-08-11T17:40:05.381Z,22.81
2022-08-11T17:42:52.736Z,23.37
2022-08-11T17:45:56.544Z,22.98
2022-08-11T17:48:30.889Z,22.74
2022-08-11T17:51:01.722Z,22.45
2022-08-11T17:54:10.038Z,22.64
2022-08-11T17:56:56.222Z,23.16
2022-08-11T17:59:48.985Z,23.13
2022-08-11T18:02:37.551Z,23.01
2022-08-11T18:05:12.355Z,23.28
2022-08-11T18:08:00.352Z,23.16
2022-08-11T18:10:48.845Z,23.97
2022-08-11T18:13:36.252Z,24.27
2022-08-11T18:16:22.264Z,24.20
2022-08-11T18:19:11.817Z,24.20
2022-08-11T18:22:13.041Z,24.69
2022-08-11T18:25:05.507Z,24.63
2022-08-11T18:27:53.158Z,24.77
2022-08-11T18:30:42.491Z,24.78
2022-08-11T18:33:56.745Z,25.04
2022-08-11T18:36:46.486Z,24.56
2022-08-11T18:39:33.937Z,25.52
2022-08-11T18:42:29.403Z,24.87
2022-08-11T18:45:19.885Z,25.06
2022-08-11T18:48:09.289Z,25.65
2022-08-11T18:51:28.070Z,25.45
2022-08-11T18:54:10.555Z,25.39
2022-08-11T18:57:00.310Z,25.13
2022-08-11T18:59:47.420Z,25.81
2022-08-11T19:02:49.228Z,25.51
2022-08-11T19:06:32.205Z,26.44
2022-08-11T19:08:47.656Z,26.17
2022-08-11T19:11:34.868Z,26.61
2022-08-11T19:14:30.372Z,27.09
2022-08-11T19:17:44.465Z,26.93
2022-08-11T19:20:28.540Z,26.99
2022-08-11T19:23:15.428Z,26.98
2022-08-11T19:26:02.112Z,27.66
2022-08-11T19:32:06.095Z,28.38
2022-08-11T19:34:52.474Z,28.37
2022-08-11T19:37:44.461Z,28.34
2022-08-11T19:40:32.073Z,28.47
2022-08-11T19:43:23.710Z,28.29
2022-08-11T19:46:14.979Z,28.56
2022-08-11T19:49:04.008Z,28.73
2022-08-11T19:51:53.910Z,28.97
2022-08-11T19:54:44.453Z,29.19
2022-08-11T19:57:33.592Z,28.84
2022-08-11T20:00:25.511Z,29.33
2022-08-11T20:03:20.125Z,29.52
2022-08-11T20:06:10.918Z,29.48
2022-08-11T20:09:00.387Z,29.37
2022-08-11T20:11:50.235Z,29.74
2022-08-11T20:14:37.639Z,30.42
2022-08-11T20:17:29.606Z,30.54
2022-08-11T20:20:21.557Z,30.71
2022-08-11T20:23:11.046Z,30.93
2022-08-11T20:26:08.407Z,31.37
2022-08-11T20:29:03.062Z,31.61
2022-08-11T20:31:49.897Z,32.62
2022-08-11T20:34:36.510Z,32.10
2022-08-11T20:37:23.328Z,32.16
2022-08-11T20:40:12.092Z,32.88
2022-08-11T20:42:58.988Z,35.17
2022-08-11T20:45:56.802Z,34.73
2022-08-11T20:48:44.180Z,33.45
2022-08-11T20:51:36.720Z,33.73
2022-08-11T20:54:43.077Z,34.05
2022-08-11T20:57:45.754Z,34.01
2022-08-11T21:00:39.670Z,34.05
2022-08-11T21:06:34.594Z,34.86
2022-08-11T21:09:58.460Z,35.03
2022-08-11T21:12:35.237Z,35.21
2022-08-11T21:15:47.058Z,35.18
2022-08-11T21:18:29.874Z,35.09
2022-08-11T21:21:21.067Z,34.80
2022-08-11T21:24:11.156Z,34.36
2022-08-11T21:27:03.606Z,34.53
2022-08-11T21:29:53.046Z,34.57
2022-08-11T21:32:40.267Z,34.84
2022-08-11T21:35:30.584Z,35.33
2022-08-11T21:38:19.217Z,36.10
2022-08-11T21:41:06.841Z,36.33
2022-08-11T21:43:53.394Z,36.29
2022-08-11T21:46:42.863Z,36.64
2022-08-11T21:49:32.667Z,37.04
2022-08-11T21:52:23.468Z,37.11
2022-08-11T21:55:09.432Z,38.07
2022-08-11T21:57:57.037Z,38.04
2022-08-11T22:00:45.387Z,38.77
2022-08-11T22:03:41.077Z,38.57
2022-08-11T22:06:36.297Z,39.05
2022-08-11T22:09:22.954Z,39.01
2022-08-11T22:12:34.431Z,38.71
2022-08-11T22:15:17.272Z,39.11
2022-08-11T22:18:03.353Z,39.39
2022-08-11T22:20:52.145Z,39.40
2022-08-11T22:23:38.940Z,39.97
2022-08-11T22:26:25.791Z,40.29
2022-08-11T22:29:11.354Z,40.33
2022-08-11T22:31:59.263Z,40.78
2022-08-11T22:34:53.426Z,40.43
2022-08-11T22:37:42.023Z,40.74
2022-08-11T22:40:29.445Z,41.00
2022-08-11T22:43:15.511Z,41.37
2022-08-11T22:46:01.168Z,41.83
2022-08-11T22:48:49.108Z,42.24
2022-08-11T22:51:38.637Z,42.15
2022-08-11T22:54:27.328Z,42.42
2022-08-11T22:57:15.621Z,42.74
2022-08-11T23:00:04.992Z,42.93
2022-08-11T23:02:51.332Z,43.07
2022-08-11T23:05:37.861Z,43.36
2022-08-11T23:08:23.667Z,43.02
2022-08-11T23:11:11.706Z,43.61
2022-08-11T23:13:58.285Z,43.67
2022-08-11T23:16:46.687Z,43.95
2022-08-11T23:20:06.769Z,44.35
2022-08-11T23:22:50.228Z,44.00
2022-08-11T23:25:36.596Z,44.44
2022-08-11T23:28:24.691Z,44.36
2022-08-11T23:31:15.640Z,44.81
2022-08-11T23:34:04.134Z,45.03
2022-08-11T23:36:50.064Z,44.99
2022-08-11T23:39:35.515Z,45.29
2022-08-11T23:42:24.151Z,45.62
2022-08-11T23:45:15.001Z,45.57
2022-08-11T23:48:05.574Z,45.61
2022-08-11T23:50:51.932Z,45.59
2022-08-11T23:53:38.617Z,45.64
2022-08-11T23:56:26.606Z,45.48
2022-08-11T23:59:14.675Z,45.59
